createdAt,value
2023-01-18T00:01:06.968Z,0
2023-01-18T00:04:32.227Z,0
2023-01-18T00:07:57.442Z,0
2023-01-18T00:11:22.695Z,0
2023-01-18T00:14:47.940Z,0
2023-01-18T00:18:13.169Z,0
2023-01-18T00:21:38.396Z,0
2023-01-18T00:25:03.646Z,0
2023-01-18T00:28:28.904Z,0
2023-01-18T00:31:54.201Z,0
2023-01-18T00:35:19.392Z,0
2023-01-18T00:38:44.613Z,0
2023-01-18T00:42:09.871Z,0
2023-01-18T00:45:35.262Z,0
2023-01-18T00:49:00.416Z,0
2023-01-18T00:52:25.644Z,0
2023-01-18T00:55:50.904Z,0
2023-01-18T00:59:16.174Z,0
2023-01-18T01:02:41.459Z,0
2023-01-18T01:06:07.438Z,0
2023-01-18T01:09:32.651Z,0
2023-01-18T01:12:58.298Z,0
2023-01-18T01:16:23.182Z,0
2023-01-18T01:19:48.371Z,0
2023-01-18T01:23:13.659Z,0
2023-01-18T01:26:38.881Z,0
2023-01-18T01:30:04.177Z,0
2023-01-18T01:33:29.435Z,0
2023-01-18T01:36:54.686Z,0
2023-01-18T01:40:19.911Z,0
2023-01-18T01:43:45.112Z,0
2023-01-18T01:47:10.369Z,0
2023-01-18T01:50:35.629Z,0
2023-01-18T01:54:00.888Z,0
2023-01-18T01:57:26.172Z,0
2023-01-18T02:00:51.458Z,0
2023-01-18T02:04:16.581Z,0
2023-01-18T02:07:41.823Z,0
2023-01-18T02:11:07.103Z,0
2023-01-18T02:14:32.389Z,0
2023-01-18T02:17:57.656Z,0
2023-01-18T02:21:22.909Z,0
2023-01-18T02:24:48.108Z,0
2023-01-18T02:28:13.361Z,0
2023-01-18T02:31:38.645Z,0
2023-01-18T02:35:03.856Z,0
2023-01-18T02:38:29.087Z,0
2023-01-18T02:41:54.325Z,0
2023-01-18T02:45:19.584Z,0
2023-01-18T02:48:44.848Z,0
2023-01-18T02:52:10.075Z,0
2023-01-18T02:55:35.335Z,0
2023-01-18T02:59:00.575Z,0
2023-01-18T03:02:25.867Z,0
2023-01-18T03:05:51.227Z,0
2023-01-18T03:09:16.368Z,0
2023-01-18T03:12:41.653Z,0
2023-01-18T03:16:06.908Z,0
2023-01-18T03:19:32.149Z,0
2023-01-18T03:22:57.730Z,0
2023-01-18T03:26:22.646Z,0
2023-01-18T03:29:47.886Z,0
2023-01-18T03:33:13.122Z,0
2023-01-18T03:36:38.377Z,0
2023-01-18T03:40:03.634Z,0
2023-01-18T03:43:28.886Z,0
2023-01-18T03:46:54.153Z,0
2023-01-18T03:50:19.400Z,0
2023-01-18T03:53:44.652Z,0
2023-01-18T03:57:09.935Z,0
2023-01-18T04:00:35.134Z,0
2023-01-18T04:04:00.367Z,0
2023-01-18T04:07:25.600Z,0
2023-01-18T04:10:50.857Z,0
2023-01-18T04:14:16.118Z,0
2023-01-18T04:17:41.351Z,0
2023-01-18T04:21:06.597Z,0
2023-01-18T04:24:31.840Z,0
2023-01-18T04:27:57.121Z,0
2023-01-18T04:31:22.516Z,0
2023-01-18T04:34:47.726Z,0
2023-01-18T04:38:14.191Z,0
2023-01-18T04:41:39.481Z,0
2023-01-18T04:45:04.727Z,0
2023-01-18T04:48:30.022Z,0
2023-01-18T04:51:55.254Z,0
2023-01-18T04:55:20.508Z,0
2023-01-18T04:58:45.823Z,0
2023-01-18T05:02:11.161Z,0
2023-01-18T05:05:36.374Z,0
2023-01-18T05:09:04.435Z,0
2023-01-18T05:12:29.703Z,0
2023-01-18T05:15:54.997Z,0
2023-01-18T05:19:20.300Z,0
2023-01-18T05:22:45.584Z,0
2023-01-18T05:26:10.868Z,0
2023-01-18T05:29:36.155Z,0
2023-01-18T05:33:01.695Z,0
2023-01-18T05:36:26.694Z,0
2023-01-18T05:39:51.927Z,0
2023-01-18T05:43:17.215Z,0
2023-01-18T05:46:42.484Z,0
2023-01-18T05:50:07.726Z,0
2023-01-18T05:53:33.016Z,0
2023-01-18T05:56:58.346Z,0
2023-01-18T06:00:23.625Z,0
2023-01-18T06:03:48.894Z,0
2023-01-18T06:07:14.279Z,0
2023-01-18T06:10:39.595Z,0
2023-01-18T06:14:04.909Z,0
2023-01-18T06:17:30.171Z,0
2023-01-18T06:20:55.406Z,0
2023-01-18T06:24:20.809Z,0
2023-01-18T06:27:46.566Z,0
2023-01-18T06:31:12.030Z,0
2023-01-18T06:34:37.335Z,0
2023-01-18T06:38:02.663Z,0
2023-01-18T06:41:27.955Z,0
2023-01-18T06:44:53.245Z,0
2023-01-18T06:48:18.556Z,0
2023-01-18T06:51:43.868Z,0
2023-01-18T06:55:09.096Z,0
2023-01-18T06:58:34.360Z,0
2023-01-18T07:01:59.826Z,0
2023-01-18T07:05:25.017Z,0
2023-01-18T07:08:50.309Z,0
2023-01-18T07:12:15.605Z,0
2023-01-18T07:15:40.883Z,0
2023-01-18T07:19:06.141Z,0
2023-01-18T07:22:31.447Z,0
2023-01-18T07:25:56.654Z,0
2023-01-18T07:29:21.944Z,6
2023-01-18T07:32:47.296Z,6
2023-01-18T07:36:12.720Z,6
2023-01-18T07:39:37.979Z,6
2023-01-18T07:43:03.213Z,6
2023-01-18T07:46:28.546Z,11
2023-01-18T07:49:53.793Z,11
2023-01-18T07:53:19.055Z,11
2023-01-18T07:56:44.316Z,11
2023-01-18T08:00:09.521Z,11
2023-01-18T08:03:34.771Z,11
2023-01-18T08:07:00.071Z,17
2023-01-18T08:10:25.316Z,17
2023-01-18T08:13:50.696Z,23
2023-01-18T08:17:15.891Z,23
2023-01-18T08:20:41.190Z,23
2023-01-18T08:24:06.481Z,23
2023-01-18T08:27:31.753Z,28
2023-01-18T08:30:57.126Z,23
2023-01-18T08:34:22.307Z,23
2023-01-18T08:37:47.569Z,28
2023-01-18T08:41:12.842Z,23
2023-01-18T08:44:38.115Z,23
2023-01-18T08:48:03.413Z,28
2023-01-18T08:51:28.666Z,28
2023-01-18T08:54:53.916Z,23
2023-01-18T08:58:19.215Z,17
2023-01-18T09:01:44.492Z,23
2023-01-18T09:05:09.778Z,23
2023-01-18T09:08:35.004Z,28
2023-01-18T09:12:00.319Z,34
2023-01-18T09:15:25.602Z,45
2023-01-18T09:18:50.865Z,51
2023-01-18T09:22:16.251Z,62
2023-01-18T09:25:41.559Z,73
2023-01-18T09:29:06.800Z,79
2023-01-18T09:32:32.129Z,79
2023-01-18T09:35:57.404Z,84
2023-01-18T09:39:22.746Z,84
2023-01-18T09:42:47.940Z,84
2023-01-18T09:46:13.293Z,90
2023-01-18T09:49:38.532Z,90
2023-01-18T09:53:03.835Z,101
2023-01-18T09:56:29.141Z,101
2023-01-18T09:59:54.420Z,101
2023-01-18T10:03:19.706Z,96
2023-01-18T10:06:45.014Z,90
2023-01-18T10:10:10.315Z,90
2023-01-18T10:13:35.633Z,84
2023-01-18T10:17:00.912Z,107
2023-01-18T10:20:26.190Z,90
2023-01-18T10:23:51.469Z,90
2023-01-18T10:27:16.846Z,96
2023-01-18T10:30:42.176Z,107
2023-01-18T10:34:07.400Z,73
2023-01-18T10:37:32.687Z,84
2023-01-18T10:40:58.028Z,84
2023-01-18T10:44:23.316Z,79
2023-01-18T10:47:48.752Z,62
2023-01-18T10:51:16.953Z,79
2023-01-18T10:54:42.227Z,73
2023-01-18T10:58:07.509Z,62
2023-01-18T11:01:32.945Z,62
2023-01-18T11:04:58.131Z,68
2023-01-18T11:08:23.355Z,68
2023-01-18T11:11:48.620Z,62
2023-01-18T11:15:14.007Z,62
2023-01-18T11:18:39.246Z,68
2023-01-18T11:22:04.563Z,62
2023-01-18T11:25:29.824Z,51
2023-01-18T11:28:55.125Z,45
2023-01-18T11:32:20.466Z,39
2023-01-18T11:35:45.756Z,45
2023-01-18T11:39:11.091Z,45
2023-01-18T11:42:36.381Z,45
2023-01-18T11:46:01.830Z,45
2023-01-18T11:49:26.894Z,45
2023-01-18T11:52:52.574Z,45
2023-01-18T11:56:17.817Z,45
2023-01-18T11:59:43.096Z,39
2023-01-18T12:03:08.530Z,39
2023-01-18T12:06:33.696Z,39
2023-01-18T12:09:58.999Z,39
2023-01-18T12:13:24.322Z,39
2023-01-18T12:16:49.618Z,34
2023-01-18T12:20:14.914Z,34
2023-01-18T12:23:40.474Z,34
2023-01-18T12:27:05.502Z,34
2023-01-18T12:30:30.845Z,28
2023-01-18T12:33:56.022Z,34
2023-01-18T12:37:21.299Z,34
2023-01-18T12:40:46.591Z,34
2023-01-18T12:44:11.851Z,34
2023-01-18T12:47:37.135Z,34
2023-01-18T12:51:02.380Z,34
2023-01-18T12:54:27.664Z,34
2023-01-18T12:57:52.957Z,34
2023-01-18T13:01:18.338Z,34
2023-01-18T13:04:43.549Z,34
2023-01-18T13:08:09.517Z,28
2023-01-18T13:11:34.800Z,28
2023-01-18T13:15:00.067Z,28
2023-01-18T13:18:25.366Z,28
2023-01-18T13:21:50.641Z,28
2023-01-18T13:25:15.879Z,28
2023-01-18T13:28:41.201Z,28
2023-01-18T13:32:06.450Z,23
2023-01-18T13:35:31.794Z,23
2023-01-18T13:38:57.108Z,23
2023-01-18T13:42:22.362Z,23
2023-01-18T13:45:47.652Z,23
2023-01-18T13:49:20.333Z,23
2023-01-18T13:52:43.769Z,23
2023-01-18T13:56:09.451Z,23
2023-01-18T13:59:34.731Z,23
2023-01-18T14:03:00.402Z,28
2023-01-18T14:06:25.352Z,28
2023-01-18T14:09:50.691Z,34
2023-01-18T14:13:16.045Z,23
2023-01-18T14:16:41.345Z,23
2023-01-18T14:20:06.645Z,23
2023-01-18T14:23:32.005Z,17
2023-01-18T14:26:57.339Z,17
2023-01-18T14:30:24.915Z,11
2023-01-18T15:06:15.561Z,0
2023-01-18T15:09:40.822Z,6
2023-01-18T15:13:06.122Z,6
2023-01-18T15:16:31.451Z,6
2023-01-18T15:19:56.702Z,6
2023-01-18T15:23:22.039Z,6
2023-01-18T15:26:47.289Z,6
2023-01-18T15:30:13.616Z,6
2023-01-18T15:33:38.916Z,0
2023-01-18T15:37:04.267Z,0
2023-01-18T15:40:29.574Z,0
2023-01-18T15:43:54.886Z,0
2023-01-18T15:47:20.200Z,0
2023-01-18T15:50:45.462Z,0
2023-01-18T15:54:10.785Z,0
2023-01-18T15:57:36.097Z,0
2023-01-18T16:01:01.437Z,0
2023-01-18T16:04:26.617Z,0
2023-01-18T16:07:57.750Z,0
2023-01-18T16:11:17.210Z,0
2023-01-18T16:14:42.466Z,0
2023-01-18T16:18:07.712Z,0
2023-01-18T16:21:33.085Z,0
2023-01-18T16:24:58.412Z,0
2023-01-18T16:28:23.698Z,0
2023-01-18T16:31:49.013Z,0
2023-01-18T16:35:14.255Z,0
2023-01-18T16:38:39.631Z,0
2023-01-18T16:42:05.243Z,0
2023-01-18T16:45:30.898Z,0
2023-01-18T16:48:56.858Z,0
2023-01-18T16:52:22.200Z,0
2023-01-18T16:55:47.574Z,0
2023-01-18T16:59:13.283Z,0
2023-01-18T17:02:38.757Z,0
2023-01-18T17:06:04.210Z,0
2023-01-18T17:09:40.576Z,0
2023-01-18T17:13:03.507Z,0
2023-01-18T17:16:28.584Z,0
2023-01-18T17:19:54.370Z,0
2023-01-18T17:23:19.893Z,0
2023-01-18T17:26:45.180Z,0
2023-01-18T17:30:10.540Z,0
2023-01-18T17:33:35.966Z,0
2023-01-18T17:37:01.312Z,0
2023-01-18T17:40:37.687Z,0
2023-01-18T17:43:52.107Z,0
2023-01-18T17:47:17.462Z,0
2023-01-18T17:50:42.974Z,0
2023-01-18T17:54:13.251Z,0
2023-01-18T17:57:33.944Z,0
2023-01-18T18:00:59.815Z,0
2023-01-18T18:04:27.401Z,0
2023-01-18T18:07:53.555Z,0
2023-01-18T18:11:19.433Z,0
2023-01-18T18:14:45.533Z,0
2023-01-18T18:18:22.551Z,0
2023-01-18T18:21:37.000Z,0
2023-01-18T18:25:02.511Z,0
2023-01-18T18:28:28.266Z,0
2023-01-18T18:31:53.617Z,0
2023-01-18T18:35:25.310Z,0
2023-01-18T18:38:44.671Z,0
2023-01-18T18:42:09.993Z,0
2023-01-18T18:45:35.401Z,0
2023-01-18T18:49:00.697Z,0
2023-01-18T18:52:26.021Z,0
2023-01-18T18:55:51.273Z,0
2023-01-18T18:59:16.539Z,0
2023-01-18T19:02:41.830Z,0
2023-01-18T19:06:07.170Z,0
2023-01-18T19:09:32.317Z,0
2023-01-18T19:12:58.133Z,0
2023-01-18T19:16:23.076Z,0
2023-01-18T19:19:48.139Z,0
2023-01-18T19:23:13.518Z,0
2023-01-18T19:26:38.793Z,0
2023-01-18T19:30:04.084Z,0
2023-01-18T19:33:29.390Z,0
2023-01-18T19:36:54.655Z,0
2023-01-18T19:40:20.010Z,0
2023-01-18T19:43:45.221Z,0
2023-01-18T19:47:10.607Z,0
2023-01-18T19:50:35.863Z,0
2023-01-18T19:54:01.121Z,0
2023-01-18T19:57:26.445Z,0
2023-01-18T20:00:51.762Z,0
2023-01-18T20:04:17.001Z,0
2023-01-18T20:07:42.227Z,0
2023-01-18T20:11:07.507Z,0
2023-01-18T20:14:40.860Z,0
2023-01-18T20:17:58.046Z,0
2023-01-18T20:21:23.323Z,0
2023-01-18T20:24:48.575Z,0
2023-01-18T20:28:13.808Z,0
2023-01-18T20:31:39.237Z,0
2023-01-18T20:35:04.480Z,0
2023-01-18T20:38:29.753Z,0
2023-01-18T20:41:55.022Z,0
2023-01-18T20:45:20.292Z,0
2023-01-18T20:48:45.621Z,0
2023-01-18T20:52:10.895Z,0
2023-01-18T20:55:36.260Z,0
2023-01-18T20:59:01.515Z,0
2023-01-18T21:02:26.836Z,0
2023-01-18T21:05:52.100Z,0
2023-01-18T21:09:17.382Z,0
2023-01-18T21:12:42.690Z,0
2023-01-18T21:16:08.007Z,0
2023-01-18T21:19:33.288Z,0
2023-01-18T21:22:58.555Z,0
2023-01-18T21:26:23.837Z,0
2023-01-18T21:29:49.128Z,0
2023-01-18T21:33:14.437Z,0
2023-01-18T21:36:39.723Z,0
2023-01-18T21:40:04.976Z,0
2023-01-18T21:43:30.240Z,0
2023-01-18T21:46:55.591Z,0
2023-01-18T21:50:20.839Z,0
2023-01-18T21:53:46.184Z,0
2023-01-18T21:57:11.505Z,0
2023-01-18T22:00:36.742Z,0
2023-01-18T22:04:02.024Z,0
2023-01-18T22:07:27.310Z,0
2023-01-18T22:10:52.591Z,0
2023-01-18T22:14:17.899Z,0
2023-01-18T22:17:43.130Z,0
2023-01-18T22:21:08.382Z,0
2023-01-18T22:24:33.633Z,0
2023-01-18T22:27:59.160Z,0
2023-01-18T22:31:24.241Z,0
2023-01-18T22:34:49.462Z,0
2023-01-18T22:38:14.716Z,0
2023-01-18T22:41:40.003Z,0
2023-01-18T22:45:05.255Z,0
2023-01-18T22:48:30.619Z,0
2023-01-18T22:51:55.774Z,0
2023-01-18T22:55:21.034Z,0
2023-01-18T22:58:46.308Z,0
2023-01-18T23:02:11.578Z,0
2023-01-18T23:05:36.903Z,0
2023-01-18T23:09:02.089Z,0
2023-01-18T23:12:27.333Z,0
2023-01-18T23:15:52.697Z,0
2023-01-18T23:19:17.911Z,0
2023-01-18T23:22:43.186Z,0
2023-01-18T23:26:08.453Z,0
2023-01-18T23:29:33.696Z,0
2023-01-18T23:32:58.939Z,0
2023-01-18T23:36:24.188Z,0
2023-01-18T23:39:49.456Z,0
2023-01-18T23:43:14.701Z,0
2023-01-18T23:46:40.039Z,0
2023-01-18T23:50:05.250Z,0
2023-01-18T23:53:30.544Z,0
2023-01-18T23:56:55.815Z,0
